createdAt,value
2018-12-09T00:00:57.428Z,985.42
2018-12-09T00:01:57.437Z,985.35
2018-12-09T00:02:57.446Z,985.28
2018-12-09T00:03:57.447Z,985.17
2018-12-09T00:04:57.456Z,985.11
2018-12-09T00:05:57.448Z,985.22
2018-12-09T00:06:57.453Z,985.24
2018-12-09T00:07:57.453Z,985.23
2018-12-09T00:09:57.474Z,985.23
2018-12-09T00:10:57.468Z,985.26
2018-12-09T00:11:57.470Z,985.20
2018-12-09T00:12:57.489Z,985.30
2018-12-09T00:13:57.476Z,985.30
2018-12-09T00:14:57.485Z,985.31
2018-12-09T00:15:57.490Z,985.33
2018-12-09T00:16:57.515Z,985.28
2018-12-09T00:17:57.491Z,985.35
2018-12-09T00:18:57.516Z,985.35
2018-12-09T00:19:57.516Z,985.30
2018-12-09T00:20:57.530Z,985.25
2018-12-09T00:21:57.515Z,985.25
2018-12-09T00:22:57.543Z,985.32
2018-12-09T00:23:57.518Z,985.22
2018-12-09T00:24:57.524Z,985.22
2018-12-09T00:25:57.526Z,985.28
2018-12-09T00:26:57.537Z,985.30
2018-12-09T00:27:57.559Z,985.42
2018-12-09T00:28:57.525Z,985.47
2018-12-09T00:29:57.535Z,985.56
2018-12-09T00:30:57.536Z,985.46
2018-12-09T00:31:57.549Z,985.48
2018-12-09T00:32:57.536Z,985.19
2018-12-09T00:33:57.562Z,985.19
2018-12-09T00:34:57.555Z,985.08
2018-12-09T00:35:57.565Z,985.19
2018-12-09T00:36:59.556Z,985.18
2018-12-09T00:37:57.572Z,985.10
2018-12-09T00:38:57.604Z,985.12
2018-12-09T00:39:57.581Z,985.10
2018-12-09T00:40:59.597Z,985.05
2018-12-09T00:41:57.575Z,985.09
2018-12-09T00:42:57.607Z,985.02
2018-12-09T00:43:57.583Z,985.06
2018-12-09T00:44:57.597Z,985.07
2018-12-09T00:45:57.596Z,985.12
2018-12-09T00:46:57.589Z,985.16
2018-12-09T00:47:57.642Z,985.19
2018-12-09T00:48:57.608Z,985.18
2018-12-09T00:49:57.610Z,985.09
2018-12-09T00:50:57.621Z,985.14
2018-12-09T00:51:57.612Z,985.17
2018-12-09T00:53:57.625Z,985.21
2018-12-09T00:54:57.622Z,985.24
2018-12-09T00:55:57.628Z,985.20
2018-12-09T00:56:57.626Z,985.26
2018-12-09T00:57:57.642Z,985.18
2018-12-09T00:58:57.641Z,985.19
2018-12-09T00:59:57.646Z,985.15
2018-12-09T01:00:57.685Z,985.29
2018-12-09T01:01:57.662Z,985.16
2018-12-09T01:02:57.648Z,985.07
2018-12-09T01:03:57.670Z,985.04
2018-12-09T01:04:57.662Z,985.08
2018-12-09T01:05:57.668Z,985.05
2018-12-09T01:06:57.681Z,985.00
2018-12-09T01:07:57.663Z,984.99
2018-12-09T01:08:57.685Z,985.07
2018-12-09T01:09:57.703Z,985.00
2018-12-09T01:10:57.691Z,985.06
2018-12-09T01:11:57.683Z,984.99
2018-12-09T01:12:57.694Z,985.16
2018-12-09T01:13:57.703Z,985.16
2018-12-09T01:14:57.696Z,985.13
2018-12-09T01:15:57.701Z,985.08
2018-12-09T01:16:57.711Z,985.17
2018-12-09T01:17:57.711Z,985.13
2018-12-09T01:18:57.724Z,985.16
2018-12-09T01:19:57.716Z,985.22
2018-12-09T01:20:57.729Z,985.04
2018-12-09T01:21:57.729Z,985.16
2018-12-09T01:22:57.730Z,985.15
2018-12-09T01:23:57.735Z,985.14
2018-12-09T01:24:57.752Z,985.17
2018-12-09T01:25:57.745Z,985.27
2018-12-09T01:26:57.740Z,985.25
2018-12-09T01:27:57.746Z,985.28
2018-12-09T01:28:57.765Z,985.23
2018-12-09T01:29:57.771Z,985.29
2018-12-09T01:30:57.767Z,985.21
2018-12-09T01:31:57.765Z,985.24
2018-12-09T01:32:57.776Z,985.28
2018-12-09T01:33:57.776Z,985.24
2018-12-09T01:34:57.778Z,985.24
2018-12-09T01:35:57.781Z,985.29
2018-12-09T01:36:57.784Z,985.32
2018-12-09T01:37:57.797Z,985.40
2018-12-09T01:38:57.835Z,985.34
2018-12-09T01:39:57.799Z,985.33
2018-12-09T01:40:57.815Z,985.35
2018-12-09T01:41:57.803Z,985.40
2018-12-09T01:42:57.837Z,985.36
2018-12-09T01:43:57.815Z,985.39
2018-12-09T01:44:57.813Z,985.41
2018-12-09T01:45:57.822Z,985.34
2018-12-09T01:46:57.834Z,985.40
2018-12-09T01:47:57.824Z,985.38
2018-12-09T01:48:57.834Z,985.56
2018-12-09T01:49:57.836Z,985.49
2018-12-09T01:50:57.841Z,985.54
2018-12-09T01:51:57.842Z,985.45
2018-12-09T01:52:57.851Z,985.46
2018-12-09T01:53:57.856Z,985.45
2018-12-09T01:54:57.859Z,985.55
2018-12-09T01:55:57.865Z,985.38
2018-12-09T01:56:57.859Z,985.44
2018-12-09T01:57:57.865Z,985.48
2018-12-09T01:58:57.871Z,985.45
2018-12-09T02:00:57.885Z,985.38
2018-12-09T02:01:57.884Z,985.42
2018-12-09T02:02:57.888Z,985.53
2018-12-09T02:03:57.893Z,985.45
2018-12-09T02:04:57.901Z,985.49
2018-12-09T02:05:57.909Z,985.49
2018-12-09T02:06:57.906Z,985.46
2018-12-09T02:07:57.907Z,985.60
2018-12-09T02:08:57.918Z,985.63
2018-12-09T02:09:57.917Z,985.45
2018-12-09T02:10:57.922Z,985.58
2018-12-09T02:11:57.928Z,985.53
2018-12-09T02:12:57.928Z,985.49
2018-12-09T02:13:57.933Z,985.66
2018-12-09T02:14:57.941Z,985.63
2018-12-09T02:15:57.943Z,985.70
2018-12-09T02:16:57.948Z,985.59
2018-12-09T02:17:57.948Z,985.56
2018-12-09T02:18:57.949Z,985.63
2018-12-09T02:19:57.957Z,985.60
2018-12-09T02:20:57.989Z,985.72
2018-12-09T02:21:57.965Z,985.71
2018-12-09T02:22:57.971Z,985.70
2018-12-09T02:23:57.979Z,985.78
2018-12-09T02:24:57.980Z,985.81
2018-12-09T02:25:57.987Z,985.73
2018-12-09T02:26:57.989Z,985.67
2018-12-09T02:27:57.990Z,985.73
2018-12-09T02:28:57.998Z,985.77
2018-12-09T02:29:58.007Z,985.68
2018-12-09T02:30:58.003Z,985.79
2018-12-09T02:31:58.083Z,985.70
2018-12-09T02:32:58.019Z,985.76
2018-12-09T02:33:58.012Z,985.77
2018-12-09T02:34:58.057Z,985.81
2018-12-09T02:35:58.024Z,985.81
2018-12-09T02:37:58.051Z,985.84
2018-12-09T02:38:58.039Z,985.87
2018-12-09T02:39:58.044Z,985.83
2018-12-09T02:40:58.049Z,985.87
2018-12-09T02:41:58.059Z,985.94
2018-12-09T02:42:58.063Z,985.95
2018-12-09T02:43:58.077Z,985.87
2018-12-09T02:44:58.071Z,985.80
2018-12-09T02:45:58.078Z,985.98
2018-12-09T02:46:58.082Z,985.93
2018-12-09T02:47:58.085Z,985.93
2018-12-09T02:48:58.082Z,985.81
2018-12-09T02:49:58.088Z,985.84
2018-12-09T02:50:58.091Z,985.94
2018-12-09T02:51:58.096Z,985.81
2018-12-09T02:52:58.098Z,985.87
2018-12-09T02:53:58.105Z,985.87
2018-12-09T02:55:58.116Z,985.87
2018-12-09T02:56:58.120Z,985.87
2018-12-09T02:57:58.123Z,985.68
2018-12-09T02:58:58.132Z,985.87
2018-12-09T02:59:58.135Z,985.92
2018-12-09T03:00:58.138Z,985.82
2018-12-09T03:01:58.137Z,985.89
2018-12-09T03:02:58.139Z,985.89
2018-12-09T03:03:58.148Z,985.87
2018-12-09T03:04:58.151Z,985.86
2018-12-09T03:05:58.167Z,985.90
2018-12-09T03:06:58.163Z,985.93
2018-12-09T03:07:58.167Z,985.86
2018-12-09T03:08:58.172Z,985.86
2018-12-09T03:09:58.181Z,985.81
2018-12-09T03:10:58.175Z,985.78
2018-12-09T03:11:58.187Z,985.98
2018-12-09T03:12:58.185Z,985.89
2018-12-09T03:13:58.194Z,985.93
2018-12-09T03:14:58.205Z,985.85
2018-12-09T03:15:58.210Z,985.78
2018-12-09T03:16:58.206Z,985.90
2018-12-09T03:17:58.206Z,985.88
2018-12-09T03:18:58.232Z,985.88
2018-12-09T03:19:58.219Z,985.86
2018-12-09T03:20:58.218Z,986.06
2018-12-09T03:21:58.226Z,985.91
2018-12-09T03:22:58.226Z,985.91
2018-12-09T03:23:58.239Z,986.11
2018-12-09T03:24:58.238Z,986.07
2018-12-09T03:25:58.251Z,985.88
2018-12-09T03:26:58.248Z,985.97
2018-12-09T03:27:58.252Z,985.85
2018-12-09T03:28:58.257Z,985.96
2018-12-09T03:29:58.254Z,985.91
2018-12-09T03:30:58.265Z,985.91
2018-12-09T03:31:58.274Z,986.06
2018-12-09T03:32:58.275Z,985.88
2018-12-09T03:33:58.281Z,986.00
2018-12-09T03:34:58.282Z,986.02
2018-12-09T03:35:58.290Z,985.99
2018-12-09T03:36:58.321Z,986.03
2018-12-09T03:37:58.297Z,985.93
2018-12-09T03:40:58.313Z,986.13
2018-12-09T03:41:58.324Z,986.12
2018-12-09T03:43:58.331Z,985.93
2018-12-09T03:44:58.347Z,985.95
2018-12-09T03:45:58.337Z,986.11
2018-12-09T03:46:58.361Z,986.13
2018-12-09T03:47:58.349Z,986.13
2018-12-09T03:48:58.366Z,986.17
2018-12-09T03:49:58.375Z,986.26
2018-12-09T03:50:58.342Z,986.20
2018-12-09T03:51:58.366Z,986.26
2018-12-09T03:52:58.362Z,986.27
2018-12-09T03:54:58.361Z,986.25
2018-12-09T03:55:58.365Z,986.24
2018-12-09T03:56:58.385Z,986.28
2018-12-09T03:57:58.378Z,986.21
2018-12-09T03:58:58.387Z,986.17
2018-12-09T04:00:58.456Z,986.20
2018-12-09T04:01:58.389Z,986.24
2018-12-09T04:02:58.412Z,986.20
2018-12-09T04:03:58.410Z,986.23
2018-12-09T04:05:00.426Z,986.15
2018-12-09T04:05:58.410Z,986.20
2018-12-09T04:06:58.411Z,986.13
2018-12-09T04:07:58.538Z,986.21
2018-12-09T04:08:58.413Z,986.23
2018-12-09T04:09:58.435Z,986.11
2018-12-09T04:10:58.426Z,986.20
2018-12-09T04:11:58.426Z,986.23
2018-12-09T04:12:58.428Z,986.29
2018-12-09T04:13:58.447Z,986.23
2018-12-09T04:14:58.441Z,986.21
2018-12-09T04:15:58.452Z,986.24
2018-12-09T04:16:58.470Z,986.23
2018-12-09T04:17:58.463Z,986.28
2018-12-09T04:18:58.474Z,986.24
2018-12-09T04:19:58.479Z,986.28
2018-12-09T04:20:58.489Z,986.31
2018-12-09T04:21:58.485Z,986.26
2018-12-09T04:22:58.494Z,986.27
2018-12-09T04:23:58.485Z,986.12
2018-12-09T04:24:58.502Z,986.12
2018-12-09T04:25:58.491Z,986.12
2018-12-09T04:26:58.490Z,986.23
2018-12-09T04:27:58.586Z,986.21
2018-12-09T04:28:58.502Z,986.28
2018-12-09T04:29:58.509Z,986.20
2018-12-09T04:30:58.508Z,986.28
2018-12-09T04:31:58.509Z,986.29
2018-12-09T04:32:58.518Z,986.25
2018-12-09T04:33:58.524Z,986.34
2018-12-09T04:34:58.528Z,986.38
2018-12-09T04:35:58.535Z,986.36
2018-12-09T04:36:58.539Z,986.32
2018-12-09T04:37:58.531Z,986.38
2018-12-09T04:38:58.542Z,986.30
2018-12-09T04:39:58.546Z,986.38
2018-12-09T04:40:58.547Z,986.37
2018-12-09T04:41:58.559Z,986.36
2018-12-09T04:42:58.554Z,986.32
2018-12-09T04:43:58.555Z,986.32
2018-12-09T04:44:58.554Z,986.39
2018-12-09T04:45:58.561Z,986.30
2018-12-09T04:46:58.565Z,986.44
2018-12-09T04:48:58.574Z,986.50
2018-12-09T04:49:58.597Z,986.49
2018-12-09T04:50:58.586Z,986.55
2018-12-09T04:51:58.597Z,986.59
2018-12-09T04:52:58.589Z,986.46
2018-12-09T04:53:58.668Z,986.44
2018-12-09T04:54:58.600Z,986.47
2018-12-09T04:55:58.604Z,986.45
2018-12-09T04:56:58.610Z,986.42
2018-12-09T04:57:58.615Z,986.45
2018-12-09T04:58:58.626Z,986.50
2018-12-09T04:59:58.617Z,986.47
2018-12-09T05:00:58.625Z,986.50
2018-12-09T05:01:58.640Z,986.50
2018-12-09T05:02:58.631Z,986.46
2018-12-09T05:03:58.636Z,986.56
2018-12-09T05:04:58.641Z,986.44
2018-12-09T05:05:58.637Z,986.53
2018-12-09T05:06:58.652Z,986.52
2018-12-09T05:07:58.655Z,986.61
2018-12-09T05:09:58.652Z,986.55
2018-12-09T05:10:58.660Z,986.48
2018-12-09T05:11:58.667Z,986.59
2018-12-09T05:12:58.667Z,986.55
2018-12-09T05:13:58.674Z,986.54
2018-12-09T05:14:58.674Z,986.61
2018-12-09T05:15:58.719Z,986.66
2018-12-09T05:16:58.683Z,986.67
2018-12-09T05:17:58.684Z,986.58
2018-12-09T05:18:58.698Z,986.81
2018-12-09T05:19:58.702Z,986.70
2018-12-09T05:20:58.702Z,986.73
2018-12-09T05:21:58.706Z,986.75
2018-12-09T05:22:59.719Z,986.64
2018-12-09T05:23:58.701Z,986.72
2018-12-09T05:24:58.718Z,986.72
2018-12-09T05:25:58.717Z,986.73
2018-12-09T05:26:58.725Z,986.78
2018-12-09T05:27:58.732Z,986.64
2018-12-09T05:28:58.721Z,986.71
2018-12-09T05:29:58.731Z,986.75
2018-12-09T05:30:58.742Z,986.79
2018-12-09T05:31:58.744Z,986.76
2018-12-09T05:32:58.750Z,986.83
2018-12-09T05:33:58.754Z,986.77
2018-12-09T05:34:58.763Z,986.77
2018-12-09T05:35:58.760Z,986.78
2018-12-09T05:36:58.762Z,986.72
2018-12-09T05:37:58.767Z,986.81
2018-12-09T05:38:58.768Z,986.86
2018-12-09T05:39:58.777Z,986.86
2018-12-09T05:40:58.780Z,986.81
2018-12-09T05:41:58.777Z,986.80
2018-12-09T05:42:58.793Z,986.83
2018-12-09T05:43:58.792Z,986.80
2018-12-09T05:44:58.797Z,986.83
2018-12-09T05:45:58.799Z,986.95
2018-12-09T05:46:58.801Z,986.94
2018-12-09T05:47:58.819Z,986.86
2018-12-09T05:48:58.818Z,986.90
2018-12-09T05:49:58.822Z,986.98
2018-12-09T05:50:58.815Z,986.97
2018-12-09T05:51:58.822Z,986.91
2018-12-09T05:52:58.828Z,986.93
2018-12-09T05:53:58.833Z,986.98
2018-12-09T05:54:58.839Z,986.97
2018-12-09T05:55:58.840Z,986.89
2018-12-09T05:56:58.853Z,987.06
2018-12-09T05:57:58.861Z,986.92
2018-12-09T05:58:58.853Z,986.90
2018-12-09T05:59:58.856Z,987.04
2018-12-09T06:00:58.875Z,987.06
2018-12-09T06:01:58.867Z,987.03
2018-12-09T06:02:58.892Z,987.18
2018-12-09T06:03:58.881Z,987.16
2018-12-09T06:04:58.888Z,987.12
2018-12-09T06:05:58.879Z,987.10
2018-12-09T06:06:58.877Z,987.21
2018-12-09T06:07:58.880Z,987.10
2018-12-09T06:08:58.882Z,987.14
2018-12-09T06:09:58.888Z,987.13
2018-12-09T06:10:58.896Z,987.09
2018-12-09T06:11:58.899Z,987.19
2018-12-09T06:12:58.912Z,987.12
2018-12-09T06:13:58.909Z,987.14
2018-12-09T06:14:58.912Z,987.17
2018-12-09T06:15:58.924Z,987.21
2018-12-09T06:16:58.930Z,987.20
2018-12-09T06:17:58.931Z,987.01
2018-12-09T06:18:58.938Z,987.17
2018-12-09T06:19:58.953Z,987.19
2018-12-09T06:20:58.956Z,987.12
2018-12-09T06:21:58.942Z,987.23
2018-12-09T06:22:58.947Z,987.26
2018-12-09T06:23:58.958Z,987.14
2018-12-09T06:24:58.975Z,987.18
2018-12-09T06:25:58.958Z,987.24
2018-12-09T06:26:58.961Z,987.23
2018-12-09T06:27:58.973Z,987.18
2018-12-09T06:28:58.974Z,987.25
2018-12-09T06:29:58.985Z,987.30
2018-12-09T06:31:59.029Z,987.27
2018-12-09T06:32:58.997Z,987.30
2018-12-09T06:33:59.000Z,987.20
2018-12-09T06:34:59.011Z,987.41
2018-12-09T06:35:59.016Z,987.34
2018-12-09T06:36:59.026Z,987.12
2018-12-09T06:37:59.035Z,987.25
2018-12-09T06:38:59.006Z,987.34
2018-12-09T06:39:59.039Z,987.34
2018-12-09T06:40:59.012Z,987.41
2018-12-09T06:42:00.644Z,987.36
2018-12-09T06:42:59.036Z,987.35
2018-12-09T06:43:59.033Z,987.27
2018-12-09T06:44:59.044Z,987.28
2018-12-09T06:45:59.043Z,987.32
2018-12-09T06:46:59.042Z,987.39
2018-12-09T06:47:59.046Z,987.39
2018-12-09T06:48:59.053Z,987.35
2018-12-09T06:49:59.062Z,987.36
2018-12-09T06:50:59.062Z,987.19
2018-12-09T06:51:59.075Z,987.37
2018-12-09T06:52:59.074Z,987.37
2018-12-09T06:53:59.072Z,987.44
2018-12-09T06:54:59.078Z,987.45
2018-12-09T06:55:59.077Z,987.50
2018-12-09T06:56:59.084Z,987.60
2018-12-09T06:57:59.091Z,987.52
2018-12-09T06:58:59.091Z,987.47
2018-12-09T06:59:59.096Z,987.56
2018-12-09T07:00:59.101Z,987.53
2018-12-09T07:01:59.107Z,987.58
2018-12-09T07:02:59.128Z,987.55
2018-12-09T07:03:59.112Z,987.47
2018-12-09T07:04:59.119Z,987.54
2018-12-09T07:05:59.127Z,987.56
2018-12-09T07:06:59.126Z,987.44
2018-12-09T07:07:59.132Z,987.51
2018-12-09T07:08:59.133Z,987.51
2018-12-09T07:09:59.145Z,987.55
2018-12-09T07:10:59.142Z,987.62
2018-12-09T07:11:59.144Z,987.74
2018-12-09T07:12:59.173Z,987.52
2018-12-09T07:13:59.151Z,987.58
2018-12-09T07:14:59.167Z,987.66
2018-12-09T07:15:59.164Z,987.70
2018-12-09T07:16:59.168Z,987.68
2018-12-09T07:17:59.179Z,987.82
2018-12-09T07:18:59.173Z,987.69
2018-12-09T07:19:59.181Z,987.75
2018-12-09T07:20:59.188Z,987.72
2018-12-09T07:21:59.286Z,987.72
2018-12-09T07:22:59.205Z,987.76
2018-12-09T07:23:59.207Z,987.81
2018-12-09T07:24:59.209Z,987.77
2018-12-09T07:25:59.205Z,987.90
2018-12-09T07:26:59.207Z,987.84
2018-12-09T07:27:59.212Z,987.89
2018-12-09T07:28:59.216Z,987.87
2018-12-09T07:30:02.582Z,987.88
2018-12-09T07:30:59.224Z,987.83
2018-12-09T07:31:59.223Z,987.92
2018-12-09T07:32:59.231Z,988.04
2018-12-09T07:33:59.239Z,987.97
2018-12-09T07:34:59.243Z,987.94
2018-12-09T07:35:59.246Z,987.94
2018-12-09T07:36:59.249Z,987.97
2018-12-09T07:37:59.252Z,987.97
2018-12-09T07:38:59.258Z,988.01
2018-12-09T07:39:59.263Z,988.08
2018-12-09T07:40:59.268Z,988.00
2018-12-09T07:41:59.273Z,988.18
2018-12-09T07:42:59.279Z,988.08
2018-12-09T07:43:59.288Z,988.16
2018-12-09T07:44:59.284Z,988.20
2018-12-09T07:45:59.292Z,988.23
2018-12-09T07:46:59.302Z,988.28
2018-12-09T07:47:59.301Z,988.30
2018-12-09T07:48:59.300Z,988.24
2018-12-09T07:49:59.311Z,988.41
2018-12-09T07:50:59.310Z,988.36
2018-12-09T07:51:59.315Z,988.52
2018-12-09T07:52:59.318Z,988.52
2018-12-09T07:53:59.325Z,988.60
2018-12-09T07:54:59.331Z,988.57
2018-12-09T07:55:59.337Z,988.57
2018-12-09T07:56:59.346Z,988.60
2018-12-09T07:57:59.340Z,988.70
2018-12-09T07:58:59.343Z,988.89
2018-12-09T07:59:59.371Z,988.79
2018-12-09T08:00:59.365Z,988.80
2018-12-09T08:01:59.351Z,988.74
2018-12-09T08:02:59.356Z,988.92
2018-12-09T08:03:59.364Z,988.97
2018-12-09T08:04:59.374Z,988.97
2018-12-09T08:05:59.377Z,989.05
2018-12-09T08:06:59.379Z,989.23
2018-12-09T08:07:59.378Z,989.22
2018-12-09T08:08:59.383Z,989.14
2018-12-09T08:09:59.383Z,989.27
2018-12-09T08:10:59.383Z,989.27
2018-12-09T08:11:59.471Z,989.32
2018-12-09T08:12:59.400Z,989.33
2018-12-09T08:13:59.412Z,989.49
2018-12-09T08:14:59.403Z,989.42
2018-12-09T08:15:59.432Z,989.42
2018-12-09T08:16:59.408Z,989.40
2018-12-09T08:17:59.426Z,989.38
2018-12-09T08:18:59.421Z,989.42
2018-12-09T08:19:59.424Z,989.58
2018-12-09T08:20:59.436Z,989.43
2018-12-09T08:21:59.432Z,989.40
2018-12-09T08:22:59.436Z,989.48
2018-12-09T08:23:59.443Z,989.45
2018-12-09T08:24:59.454Z,989.46
2018-12-09T08:25:59.454Z,989.54
2018-12-09T08:26:59.453Z,989.51
2018-12-09T08:27:59.463Z,989.55
2018-12-09T08:28:59.478Z,989.33
2018-12-09T08:29:59.477Z,989.43
2018-12-09T08:30:59.473Z,989.33
2018-12-09T08:31:59.481Z,989.47
2018-12-09T08:32:59.477Z,989.48
2018-12-09T08:33:59.479Z,989.50
2018-12-09T08:34:59.482Z,989.55
2018-12-09T08:35:59.493Z,989.50
2018-12-09T08:36:59.505Z,989.55
2018-12-09T08:37:59.486Z,989.55
2018-12-09T08:38:59.502Z,989.55
2018-12-09T08:39:59.503Z,989.54
2018-12-09T08:40:59.502Z,989.58
2018-12-09T08:41:59.530Z,989.54
2018-12-09T08:42:59.513Z,989.57
2018-12-09T08:43:59.517Z,989.59
2018-12-09T08:44:59.521Z,989.55
2018-12-09T08:46:00.285Z,989.52
2018-12-09T08:46:59.539Z,989.61
2018-12-09T08:47:59.543Z,989.56
2018-12-09T08:48:59.549Z,989.53
2018-12-09T08:49:59.563Z,989.62
2018-12-09T08:50:59.543Z,989.57
2018-12-09T08:51:59.620Z,989.57
2018-12-09T08:52:59.555Z,989.66
2018-12-09T08:53:59.561Z,989.69
2018-12-09T08:54:59.556Z,989.68
2018-12-09T08:55:59.567Z,989.71
2018-12-09T08:57:00.580Z,989.75
2018-12-09T08:57:59.590Z,989.77
2018-12-09T08:58:59.583Z,989.78
2018-12-09T08:59:59.581Z,989.79
2018-12-09T09:00:59.577Z,989.82
2018-12-09T09:01:59.582Z,989.86
2018-12-09T09:02:59.592Z,989.89
2018-12-09T09:03:59.683Z,989.94
2018-12-09T09:04:59.605Z,989.95
2018-12-09T09:05:59.600Z,989.94
2018-12-09T09:06:59.617Z,989.98
2018-12-09T09:07:59.609Z,990.08
2018-12-09T09:08:59.613Z,990.11
2018-12-09T09:09:59.609Z,990.12
2018-12-09T09:10:59.610Z,990.12
2018-12-09T09:11:59.611Z,990.13
2018-12-09T09:12:59.620Z,990.13
2018-12-09T09:13:59.627Z,990.20
2018-12-09T09:14:59.628Z,990.22
2018-12-09T09:15:59.642Z,990.26
2018-12-09T09:16:59.656Z,990.24
2018-12-09T09:17:59.641Z,990.28
2018-12-09T09:18:59.643Z,990.28
2018-12-09T09:19:59.651Z,990.29
2018-12-09T09:20:59.666Z,990.26
2018-12-09T09:21:59.655Z,990.30
2018-12-09T09:22:59.824Z,990.23
2018-12-09T09:23:59.663Z,990.34
2018-12-09T09:24:59.667Z,990.34
2018-12-09T09:25:59.678Z,990.39
2018-12-09T09:26:59.681Z,990.42
2018-12-09T09:27:59.694Z,990.49
2018-12-09T09:28:59.688Z,990.47
2018-12-09T09:29:59.691Z,990.49
2018-12-09T09:30:59.694Z,990.50
2018-12-09T09:31:59.695Z,990.54
2018-12-09T09:32:59.700Z,990.60
2018-12-09T09:34:59.707Z,990.70
2018-12-09T09:35:59.719Z,990.74
2018-12-09T09:36:59.720Z,990.78
2018-12-09T09:37:59.718Z,990.75
2018-12-09T09:38:59.728Z,990.70
2018-12-09T09:39:59.732Z,990.59
2018-12-09T09:40:59.733Z,990.51
2018-12-09T09:41:59.736Z,990.49
2018-12-09T09:42:59.734Z,990.56
2018-12-09T09:43:59.736Z,990.53
2018-12-09T09:44:59.746Z,990.49
2018-12-09T09:45:59.751Z,990.51
2018-12-09T09:46:59.754Z,990.64
2018-12-09T09:47:59.758Z,990.56
2018-12-09T09:48:59.770Z,990.56
2018-12-09T09:49:59.763Z,990.58
2018-12-09T09:50:59.764Z,990.59
2018-12-09T09:51:59.771Z,990.54
2018-12-09T09:52:59.773Z,990.59
2018-12-09T09:53:59.785Z,990.72
2018-12-09T09:54:59.789Z,990.57
2018-12-09T09:55:59.803Z,990.59
2018-12-09T09:56:59.792Z,990.64
2018-12-09T09:57:59.803Z,990.65
2018-12-09T09:58:59.808Z,990.69
2018-12-09T09:59:59.808Z,990.63
2018-12-09T10:00:59.812Z,990.70
2018-12-09T10:01:59.816Z,990.70
2018-12-09T10:02:59.818Z,990.76
2018-12-09T10:03:59.831Z,990.75
2018-12-09T10:04:59.826Z,990.78
2018-12-09T10:05:59.832Z,990.85
2018-12-09T10:06:59.840Z,990.81
2018-12-09T10:07:59.845Z,990.87
2018-12-09T10:08:59.850Z,990.89
2018-12-09T10:09:59.851Z,990.95
2018-12-09T10:10:59.859Z,990.96
2018-12-09T10:11:59.860Z,990.97
2018-12-09T10:12:59.863Z,990.97
2018-12-09T10:13:59.862Z,991.08
2018-12-09T10:14:59.864Z,991.08
2018-12-09T10:15:59.962Z,991.11
2018-12-09T10:16:59.874Z,991.14
2018-12-09T10:17:59.877Z,991.16
2018-12-09T10:18:59.886Z,991.21
2018-12-09T10:19:59.927Z,991.24
2018-12-09T10:20:59.891Z,991.23
2018-12-09T10:21:59.909Z,991.27
2018-12-09T10:22:59.909Z,991.31
2018-12-09T10:24:00.026Z,991.35
2018-12-09T10:24:59.916Z,991.22
2018-12-09T10:25:59.915Z,991.22
2018-12-09T10:26:59.924Z,991.24
2018-12-09T10:27:59.937Z,991.22
2018-12-09T10:28:59.941Z,991.23
2018-12-09T10:29:59.944Z,991.31
2018-12-09T10:30:59.937Z,991.33
2018-12-09T10:31:59.957Z,991.36
2018-12-09T10:32:59.955Z,991.35
2018-12-09T10:33:59.956Z,991.39
2018-12-09T10:34:59.959Z,991.41
2018-12-09T10:35:59.985Z,991.42
2018-12-09T10:36:59.968Z,991.48
2018-12-09T10:37:59.976Z,991.46
2018-12-09T10:38:59.983Z,991.45
2018-12-09T10:39:59.998Z,991.50
2018-12-09T10:40:59.996Z,991.50
2018-12-09T10:41:59.998Z,991.49
2018-12-09T10:42:59.997Z,991.43
2018-12-09T10:44:00.006Z,991.46
2018-12-09T10:45:00.013Z,991.49
2018-12-09T10:46:00.018Z,991.52
2018-12-09T10:47:00.024Z,991.44
2018-12-09T10:48:00.031Z,991.51
2018-12-09T10:49:00.044Z,991.42
2018-12-09T10:50:00.036Z,991.43
2018-12-09T10:51:00.039Z,991.51
2018-12-09T10:52:00.046Z,991.56
2018-12-09T10:53:00.052Z,991.57
2018-12-09T10:54:00.052Z,991.64
2018-12-09T10:55:00.073Z,991.66
2018-12-09T10:56:00.090Z,991.61
2018-12-09T10:58:00.077Z,991.69
2018-12-09T10:59:00.082Z,991.72
2018-12-09T11:00:00.097Z,991.67
2018-12-09T11:01:00.088Z,991.68
2018-12-09T11:02:00.098Z,991.62
2018-12-09T11:03:00.105Z,991.69
2018-12-09T11:04:00.113Z,991.62
2018-12-09T11:05:00.117Z,991.62
2018-12-09T11:06:00.119Z,991.63
2018-12-09T11:07:00.139Z,991.66
2018-12-09T11:08:00.128Z,991.81
2018-12-09T11:09:00.136Z,991.77
2018-12-09T11:10:00.151Z,991.66
2018-12-09T11:11:00.157Z,991.73
2018-12-09T11:12:00.163Z,991.67
2018-12-09T11:13:00.160Z,991.72
2018-12-09T11:14:00.174Z,991.69
2018-12-09T11:15:00.175Z,991.73
2018-12-09T11:16:00.183Z,991.75
2018-12-09T11:17:00.196Z,991.69
2018-12-09T11:18:00.191Z,991.75
2018-12-09T11:19:00.202Z,991.86
2018-12-09T11:20:00.209Z,991.79
2018-12-09T11:21:00.205Z,991.78
2018-12-09T11:22:00.216Z,991.84
2018-12-09T11:23:00.221Z,991.82
2018-12-09T11:24:00.230Z,991.82
2018-12-09T11:25:00.233Z,991.86
2018-12-09T11:26:00.236Z,991.81
2018-12-09T11:27:00.245Z,991.86
2018-12-09T11:28:00.253Z,991.81
2018-12-09T11:29:01.237Z,991.80
2018-12-09T11:30:00.263Z,991.81
2018-12-09T11:31:00.276Z,991.82
2018-12-09T11:32:00.277Z,991.88
2018-12-09T11:33:00.273Z,991.92
2018-12-09T11:34:00.279Z,991.91
2018-12-09T11:35:00.305Z,991.92
2018-12-09T11:36:00.293Z,992.07
2018-12-09T11:37:00.302Z,991.98
2018-12-09T11:38:00.300Z,991.99
2018-12-09T11:39:00.305Z,992.00
2018-12-09T11:40:00.309Z,991.98
2018-12-09T11:41:00.328Z,992.01
2018-12-09T11:42:00.330Z,992.05
2018-12-09T11:43:00.320Z,992.01
2018-12-09T11:44:00.334Z,992.06
2018-12-09T11:45:00.332Z,992.01
2018-12-09T11:46:00.345Z,992.06
2018-12-09T11:47:00.355Z,992.06
2018-12-09T11:48:00.355Z,992.04
2018-12-09T11:49:00.360Z,992.10
2018-12-09T11:50:00.369Z,992.07
2018-12-09T11:51:00.388Z,992.09
2018-12-09T11:52:00.393Z,992.12
2018-12-09T11:53:00.385Z,992.11
2018-12-09T11:54:00.388Z,992.12
2018-12-09T11:55:00.393Z,992.19
2018-12-09T11:56:00.399Z,992.19
2018-12-09T11:57:00.412Z,992.09
2018-12-09T11:58:00.416Z,992.08
2018-12-09T11:59:00.428Z,992.14
2018-12-09T12:00:00.426Z,992.12
2018-12-09T12:01:00.431Z,992.07
2018-12-09T12:02:00.438Z,992.23
2018-12-09T12:03:00.440Z,992.23
2018-12-09T12:04:00.447Z,992.26
2018-12-09T12:05:00.450Z,992.22
2018-12-09T12:06:00.488Z,992.17
2018-12-09T12:07:00.466Z,992.17
2018-12-09T12:08:01.311Z,992.21
2018-12-09T12:10:00.484Z,992.22
2018-12-09T12:11:00.479Z,992.29
2018-12-09T12:12:00.484Z,992.31
2018-12-09T12:13:00.510Z,992.27
2018-12-09T12:14:00.497Z,992.20
2018-12-09T12:15:00.503Z,992.24
2018-12-09T12:16:00.519Z,992.23
2018-12-09T12:17:00.547Z,992.28
2018-12-09T12:18:00.525Z,992.26
2018-12-09T12:19:01.333Z,992.45
2018-12-09T12:20:00.529Z,992.51
2018-12-09T12:21:00.545Z,992.41
2018-12-09T12:22:01.319Z,992.58
2018-12-09T12:23:00.550Z,992.44
2018-12-09T12:24:00.558Z,992.35
2018-12-09T12:25:00.570Z,992.31
2018-12-09T12:26:00.566Z,992.40
2018-12-09T12:27:00.578Z,992.43
2018-12-09T12:28:00.584Z,992.40
2018-12-09T12:29:00.587Z,992.46
2018-12-09T12:30:00.590Z,992.43
2018-12-09T12:31:00.596Z,992.44
2018-12-09T12:32:00.603Z,992.41
2018-12-09T12:33:00.613Z,992.56
2018-12-09T12:34:00.617Z,992.53
2018-12-09T12:35:00.623Z,992.61
2018-12-09T12:36:00.635Z,992.63
2018-12-09T12:37:00.636Z,992.68
2018-12-09T12:38:00.647Z,992.69
2018-12-09T12:39:00.660Z,992.67
2018-12-09T12:40:00.657Z,992.63
2018-12-09T12:41:00.661Z,992.53
2018-12-09T12:42:00.667Z,992.51
2018-12-09T12:43:00.693Z,992.59
2018-12-09T12:44:00.684Z,992.70
2018-12-09T12:45:00.681Z,992.70